sensor_id;sensor_type;location;lat;lon;timestamp;P1;durP1;ratioP1;P2;durP2;ratioP2
64459;SDS011;50828;53.756;21.140;2023-11-21T00:01:07;5.40;;;3.00;;
64459;SDS011;50828;53.756;21.140;2023-11-21T00:06:15;14.00;;;5.50;;
64459;SDS011;50828;53.756;21.140;2023-11-21T00:11:24;9.40;;;4.60;;
64459;SDS011;50828;53.756;21.140;2023-11-21T00:16:31;8.30;;;3.80;;
64459;SDS011;50828;53.756;21.140;2023-11-21T00:21:39;6.60;;;3.50;;
64459;SDS011;50828;53.756;21.140;2023-11-21T00:26:47;7.90;;;3.20;;
64459;SDS011;50828;53.756;21.140;2023-11-21T00:31:55;7.00;;;3.20;;
64459;SDS011;50828;53.756;21.140;2023-11-21T00:37:02;6.60;;;3.30;;
64459;SDS011;50828;53.756;21.140;2023-11-21T00:42:11;10.40;;;4.40;;
64459;SDS011;50828;53.756;21.140;2023-11-21T00:47:19;9.00;;;4.30;;
64459;SDS011;50828;53.756;21.140;2023-11-21T00:52:26;7.40;;;4.00;;
64459;SDS011;50828;53.756;21.140;2023-11-21T00:57:34;7.30;;;3.70;;
64459;SDS011;50828;53.756;21.140;2023-11-21T01:02:41;6.80;;;3.40;;
64459;SDS011;50828;53.756;21.140;2023-11-21T01:07:48;7.20;;;3.90;;
64459;SDS011;50828;53.756;21.140;2023-11-21T01:12:56;7.10;;;3.40;;
64459;SDS011;50828;53.756;21.140;2023-11-21T01:18:04;10.10;;;4.20;;
64459;SDS011;50828;53.756;21.140;2023-11-21T01:23:12;8.90;;;3.80;;
64459;SDS011;50828;53.756;21.140;2023-11-21T01:28:19;8.00;;;4.20;;
64459;SDS011;50828;53.756;21.140;2023-11-21T01:33:27;8.00;;;4.30;;
64459;SDS011;50828;53.756;21.140;2023-11-21T01:38:34;6.50;;;3.80;;
64459;SDS011;50828;53.756;21.140;2023-11-21T01:43:42;6.40;;;3.60;;
64459;SDS011;50828;53.756;21.140;2023-11-21T01:48:49;4.90;;;3.30;;
64459;SDS011;50828;53.756;21.140;2023-11-21T01:53:58;6.30;;;3.70;;
64459;SDS011;50828;53.756;21.140;2023-11-21T01:59:09;6.10;;;3.50;;
64459;SDS011;50828;53.756;21.140;2023-11-21T02:09:29;6.90;;;3.90;;
64459;SDS011;50828;53.756;21.140;2023-11-21T02:14:36;6.50;;;3.70;;
64459;SDS011;50828;53.756;21.140;2023-11-21T02:19:44;6.80;;;3.50;;
64459;SDS011;50828;53.756;21.140;2023-11-21T02:24:55;4.00;;;2.80;;
64459;SDS011;50828;53.756;21.140;2023-11-21T02:30:02;5.70;;;3.00;;
64459;SDS011;50828;53.756;21.140;2023-11-21T02:35:11;8.00;;;3.50;;
64459;SDS011;50828;53.756;21.140;2023-11-21T02:40:19;6.70;;;3.50;;
64459;SDS011;50828;53.756;21.140;2023-11-21T02:45:28;7.30;;;4.00;;
64459;SDS011;50828;53.756;21.140;2023-11-21T02:50:35;6.60;;;3.40;;
64459;SDS011;50828;53.756;21.140;2023-11-21T02:55:43;6.40;;;3.70;;
64459;SDS011;50828;53.756;21.140;2023-11-21T03:00:50;6.30;;;3.70;;
64459;SDS011;50828;53.756;21.140;2023-11-21T03:05:58;4.90;;;2.80;;
64459;SDS011;50828;53.756;21.140;2023-11-21T03:11:05;11.90;;;3.90;;
64459;SDS011;50828;53.756;21.140;2023-11-21T03:16:13;8.20;;;3.90;;
64459;SDS011;50828;53.756;21.140;2023-11-21T03:21:22;7.60;;;3.60;;
64459;SDS011;50828;53.756;21.140;2023-11-21T03:26:30;9.60;;;3.70;;
64459;SDS011;50828;53.756;21.140;2023-11-21T03:31:37;6.60;;;4.00;;
64459;SDS011;50828;53.756;21.140;2023-11-21T03:36:44;5.90;;;3.70;;
64459;SDS011;50828;53.756;21.140;2023-11-21T03:41:52;5.80;;;3.40;;
64459;SDS011;50828;53.756;21.140;2023-11-21T03:46:59;11.20;;;4.00;;
64459;SDS011;50828;53.756;21.140;2023-11-21T03:52:07;9.00;;;4.40;;
64459;SDS011;50828;53.756;21.140;2023-11-21T03:57:14;7.90;;;4.50;;
64459;SDS011;50828;53.756;21.140;2023-11-21T04:07:58;7.20;;;3.90;;
64459;SDS011;50828;53.756;21.140;2023-11-21T04:13:05;8.30;;;4.10;;
64459;SDS011;50828;53.756;21.140;2023-11-21T04:18:14;7.40;;;3.60;;
64459;SDS011;50828;53.756;21.140;2023-11-21T04:23:22;9.50;;;4.30;;
64459;SDS011;50828;53.756;21.140;2023-11-21T04:28:30;6.20;;;3.80;;
64459;SDS011;50828;53.756;21.140;2023-11-21T04:33:38;7.40;;;3.80;;
64459;SDS011;50828;53.756;21.140;2023-11-21T04:38:45;7.70;;;4.00;;
64459;SDS011;50828;53.756;21.140;2023-11-21T04:43:53;6.70;;;3.80;;
64459;SDS011;50828;53.756;21.140;2023-11-21T04:49:00;7.00;;;3.50;;
64459;SDS011;50828;53.756;21.140;2023-11-21T04:54:08;6.90;;;4.20;;
64459;SDS011;50828;53.756;21.140;2023-11-21T04:59:15;5.90;;;3.20;;
64459;SDS011;50828;53.756;21.140;2023-11-21T05:04:23;7.80;;;3.50;;
64459;SDS011;50828;53.756;21.140;2023-11-21T05:09:31;7.20;;;3.20;;
64459;SDS011;50828;53.756;21.140;2023-11-21T05:14:39;7.00;;;3.40;;
64459;SDS011;50828;53.756;21.140;2023-11-21T05:19:47;5.00;;;3.20;;
64459;SDS011;50828;53.756;21.140;2023-11-21T05:24:55;6.70;;;3.10;;
64459;SDS011;50828;53.756;21.140;2023-11-21T05:30:05;6.70;;;3.10;;
64459;SDS011;50828;53.756;21.140;2023-11-21T05:35:15;7.30;;;3.60;;
64459;SDS011;50828;53.756;21.140;2023-11-21T05:40:23;5.30;;;3.20;;
64459;SDS011;50828;53.756;21.140;2023-11-21T05:45:33;6.40;;;3.10;;
64459;SDS011;50828;53.756;21.140;2023-11-21T05:50:40;7.80;;;3.80;;
64459;SDS011;50828;53.756;21.140;2023-11-21T05:55:48;7.80;;;3.60;;
64459;SDS011;50828;53.756;21.140;2023-11-21T06:00:55;6.00;;;3.30;;
64459;SDS011;50828;53.756;21.140;2023-11-21T06:06:03;6.10;;;3.00;;
64459;SDS011;50828;53.756;21.140;2023-11-21T06:11:11;3.80;;;2.50;;
64459;SDS011;50828;53.756;21.140;2023-11-21T06:16:18;6.00;;;3.00;;
64459;SDS011;50828;53.756;21.140;2023-11-21T06:21:25;10.80;;;5.20;;
64459;SDS011;50828;53.756;21.140;2023-11-21T06:26:33;15.80;;;6.80;;
64459;SDS011;50828;53.756;21.140;2023-11-21T06:31:40;20.20;;;8.80;;
64459;SDS011;50828;53.756;21.140;2023-11-21T06:36:48;22.30;;;6.90;;
64459;SDS011;50828;53.756;21.140;2023-11-21T06:41:55;33.30;;;10.60;;
64459;SDS011;50828;53.756;21.140;2023-11-21T06:47:04;23.00;;;7.90;;
64459;SDS011;50828;53.756;21.140;2023-11-21T06:52:11;17.70;;;6.10;;
64459;SDS011;50828;53.756;21.140;2023-11-21T06:57:19;9.60;;;4.30;;
64459;SDS011;50828;53.756;21.140;2023-11-21T07:02:28;11.60;;;4.60;;
64459;SDS011;50828;53.756;21.140;2023-11-21T07:07:36;9.90;;;4.10;;
64459;SDS011;50828;53.756;21.140;2023-11-21T07:12:43;15.10;;;4.90;;
64459;SDS011;50828;53.756;21.140;2023-11-21T07:17:51;22.30;;;5.70;;
64459;SDS011;50828;53.756;21.140;2023-11-21T07:22:58;20.40;;;6.50;;
64459;SDS011;50828;53.756;21.140;2023-11-21T07:28:05;11.70;;;4.30;;
64459;SDS011;50828;53.756;21.140;2023-11-21T07:33:13;15.40;;;5.10;;
64459;SDS011;50828;53.756;21.140;2023-11-21T07:38:21;22.10;;;6.60;;
64459;SDS011;50828;53.756;21.140;2023-11-21T07:43:28;25.40;;;7.40;;
64459;SDS011;50828;53.756;21.140;2023-11-21T07:48:39;20.40;;;6.70;;
64459;SDS011;50828;53.756;21.140;2023-11-21T07:53:47;14.20;;;4.80;;
64459;SDS011;50828;53.756;21.140;2023-11-21T07:58:55;12.20;;;4.20;;
64459;SDS011;50828;53.756;21.140;2023-11-21T08:04:02;14.70;;;5.10;;
64459;SDS011;50828;53.756;21.140;2023-11-21T08:09:10;14.20;;;4.80;;
64459;SDS011;50828;53.756;21.140;2023-11-21T08:14:19;20.10;;;5.30;;
64459;SDS011;50828;53.756;21.140;2023-11-21T08:19:29;21.40;;;6.00;;
64459;SDS011;50828;53.756;21.140;2023-11-21T08:24:37;24.30;;;6.20;;
64459;SDS011;50828;53.756;21.140;2023-11-21T08:29:45;18.20;;;5.50;;
64459;SDS011;50828;53.756;21.140;2023-11-21T08:34:52;24.20;;;6.80;;
64459;SDS011;50828;53.756;21.140;2023-11-21T08:40:00;13.60;;;5.00;;
64459;SDS011;50828;53.756;21.140;2023-11-21T08:45:08;9.30;;;3.60;;
64459;SDS011;50828;53.756;21.140;2023-11-21T08:50:16;9.50;;;4.40;;
64459;SDS011;50828;53.756;21.140;2023-11-21T08:55:24;7.20;;;3.40;;
64459;SDS011;50828;53.756;21.140;2023-11-21T09:00:33;8.60;;;4.20;;
64459;SDS011;50828;53.756;21.140;2023-11-21T09:05:41;8.60;;;3.90;;
64459;SDS011;50828;53.756;21.140;2023-11-21T09:10:49;8.10;;;3.40;;
64459;SDS011;50828;53.756;21.140;2023-11-21T09:15:56;5.70;;;3.10;;
64459;SDS011;50828;53.756;21.140;2023-11-21T09:21:04;5.30;;;3.00;;
64459;SDS011;50828;53.756;21.140;2023-11-21T09:26:14;5.60;;;3.00;;
64459;SDS011;50828;53.756;21.140;2023-11-21T09:31:21;5.70;;;2.70;;
64459;SDS011;50828;53.756;21.140;2023-11-21T09:36:28;7.20;;;3.80;;
64459;SDS011;50828;53.756;21.140;2023-11-21T09:41:40;5.60;;;3.20;;
64459;SDS011;50828;53.756;21.140;2023-11-21T09:46:52;6.00;;;3.20;;
64459;SDS011;50828;53.756;21.140;2023-11-21T09:57:13;5.20;;;2.80;;
64459;SDS011;50828;53.756;21.140;2023-11-21T10:02:21;5.10;;;2.90;;
64459;SDS011;50828;53.756;21.140;2023-11-21T10:07:32;5.60;;;2.90;;
64459;SDS011;50828;53.756;21.140;2023-11-21T10:12:41;6.80;;;3.20;;
64459;SDS011;50828;53.756;21.140;2023-11-21T10:17:53;6.80;;;3.50;;
64459;SDS011;50828;53.756;21.140;2023-11-21T10:23:02;6.40;;;2.90;;
64459;SDS011;50828;53.756;21.140;2023-11-21T10:28:11;7.60;;;3.90;;
64459;SDS011;50828;53.756;21.140;2023-11-21T10:33:21;7.30;;;3.70;;
64459;SDS011;50828;53.756;21.140;2023-11-21T10:38:35;9.30;;;3.80;;
64459;SDS011;50828;53.756;21.140;2023-11-21T10:43:54;7.80;;;3.90;;
64459;SDS011;50828;53.756;21.140;2023-11-21T10:49:02;11.00;;;5.40;;
64459;SDS011;50828;53.756;21.140;2023-11-21T10:54:10;20.20;;;9.10;;
64459;SDS011;50828;53.756;21.140;2023-11-21T10:59:17;42.20;;;12.50;;
64459;SDS011;50828;53.756;21.140;2023-11-21T11:04:28;26.40;;;9.00;;
64459;SDS011;50828;53.756;21.140;2023-11-21T11:09:37;12.80;;;5.40;;
64459;SDS011;50828;53.756;21.140;2023-11-21T11:14:44;14.60;;;6.10;;
64459;SDS011;50828;53.756;21.140;2023-11-21T11:19:52;21.90;;;8.00;;
64459;SDS011;50828;53.756;21.140;2023-11-21T11:25:06;43.50;;;10.40;;
64459;SDS011;50828;53.756;21.140;2023-11-21T11:30:31;33.50;;;6.90;;
64459;SDS011;50828;53.756;21.140;2023-11-21T11:35:50;14.10;;;4.20;;
64459;SDS011;50828;53.756;21.140;2023-11-21T11:41:03;23.60;;;7.10;;
64459;SDS011;50828;53.756;21.140;2023-11-21T11:46:12;21.20;;;5.90;;
64459;SDS011;50828;53.756;21.140;2023-11-21T11:51:20;22.90;;;5.90;;
64459;SDS011;50828;53.756;21.140;2023-11-21T11:56:28;15.90;;;4.40;;
64459;SDS011;50828;53.756;21.140;2023-11-21T12:01:38;24.00;;;6.60;;
64459;SDS011;50828;53.756;21.140;2023-11-21T12:06:52;13.30;;;4.00;;
64459;SDS011;50828;53.756;21.140;2023-11-21T12:12:00;17.00;;;5.10;;
64459;SDS011;50828;53.756;21.140;2023-11-21T12:17:08;24.80;;;7.60;;
64459;SDS011;50828;53.756;21.140;2023-11-21T12:22:15;28.20;;;8.10;;
64459;SDS011;50828;53.756;21.140;2023-11-21T12:27:23;22.80;;;6.60;;
64459;SDS011;50828;53.756;21.140;2023-11-21T12:32:30;20.80;;;5.80;;
64459;SDS011;50828;53.756;21.140;2023-11-21T12:37:38;26.10;;;7.30;;
64459;SDS011;50828;53.756;21.140;2023-11-21T12:42:47;20.80;;;6.40;;
64459;SDS011;50828;53.756;21.140;2023-11-21T12:47:57;19.00;;;5.80;;
64459;SDS011;50828;53.756;21.140;2023-11-21T12:53:12;16.90;;;4.60;;
64459;SDS011;50828;53.756;21.140;2023-11-21T12:58:20;16.70;;;6.10;;
64459;SDS011;50828;53.756;21.140;2023-11-21T13:03:29;20.50;;;5.60;;
64459;SDS011;50828;53.756;21.140;2023-11-21T13:08:36;16.60;;;5.80;;
64459;SDS011;50828;53.756;21.140;2023-11-21T13:13:44;10.50;;;3.80;;
64459;SDS011;50828;53.756;21.140;2023-11-21T13:18:53;7.50;;;3.00;;
64459;SDS011;50828;53.756;21.140;2023-11-21T13:24:00;7.10;;;2.90;;
64459;SDS011;50828;53.756;21.140;2023-11-21T13:29:08;13.80;;;3.70;;
64459;SDS011;50828;53.756;21.140;2023-11-21T13:34:16;12.20;;;4.40;;
64459;SDS011;50828;53.756;21.140;2023-11-21T13:39:31;11.70;;;3.80;;
64459;SDS011;50828;53.756;21.140;2023-11-21T13:44:39;24.10;;;6.90;;
64459;SDS011;50828;53.756;21.140;2023-11-21T13:49:50;23.80;;;6.80;;
64459;SDS011;50828;53.756;21.140;2023-11-21T13:54:57;13.80;;;5.20;;
64459;SDS011;50828;53.756;21.140;2023-11-21T14:00:11;13.40;;;4.70;;
64459;SDS011;50828;53.756;21.140;2023-11-21T14:05:40;10.20;;;4.50;;
64459;SDS011;50828;53.756;21.140;2023-11-21T14:10:50;15.30;;;5.40;;
64459;SDS011;50828;53.756;21.140;2023-11-21T14:16:01;14.00;;;5.20;;
64459;SDS011;50828;53.756;21.140;2023-11-21T14:21:10;10.20;;;4.40;;
64459;SDS011;50828;53.756;21.140;2023-11-21T14:26:19;12.90;;;4.90;;
64459;SDS011;50828;53.756;21.140;2023-11-21T14:31:28;18.60;;;5.50;;
64459;SDS011;50828;53.756;21.140;2023-11-21T14:36:35;40.80;;;12.10;;
64459;SDS011;50828;53.756;21.140;2023-11-21T14:41:44;46.70;;;11.60;;
64459;SDS011;50828;53.756;21.140;2023-11-21T14:46:51;30.60;;;9.50;;
64459;SDS011;50828;53.756;21.140;2023-11-21T14:52:01;28.50;;;6.80;;
64459;SDS011;50828;53.756;21.140;2023-11-21T14:57:12;25.20;;;6.20;;
64459;SDS011;50828;53.756;21.140;2023-11-21T15:02:22;14.60;;;4.00;;
64459;SDS011;50828;53.756;21.140;2023-11-21T15:07:52;7.90;;;3.40;;
64459;SDS011;50828;53.756;21.140;2023-11-21T15:13:12;14.20;;;4.60;;
64459;SDS011;50828;53.756;21.140;2023-11-21T15:18:20;23.40;;;6.80;;
64459;SDS011;50828;53.756;21.140;2023-11-21T15:23:28;28.80;;;8.80;;
64459;SDS011;50828;53.756;21.140;2023-11-21T15:28:38;27.60;;;7.50;;
64459;SDS011;50828;53.756;21.140;2023-11-21T15:33:46;16.60;;;5.30;;
64459;SDS011;50828;53.756;21.140;2023-11-21T15:38:53;16.30;;;6.00;;
64459;SDS011;50828;53.756;21.140;2023-11-21T15:44:03;12.10;;;5.00;;
64459;SDS011;50828;53.756;21.140;2023-11-21T15:49:15;15.50;;;5.20;;
64459;SDS011;50828;53.756;21.140;2023-11-21T15:54:25;11.70;;;3.90;;
64459;SDS011;50828;53.756;21.140;2023-11-21T15:59:34;10.70;;;3.50;;
64459;SDS011;50828;53.756;21.140;2023-11-21T16:04:41;11.20;;;3.60;;
64459;SDS011;50828;53.756;21.140;2023-11-21T16:09:48;20.70;;;6.50;;
64459;SDS011;50828;53.756;21.140;2023-11-21T16:14:55;22.30;;;5.40;;
64459;SDS011;50828;53.756;21.140;2023-11-21T16:20:03;11.80;;;4.90;;
64459;SDS011;50828;53.756;21.140;2023-11-21T16:25:14;10.10;;;3.20;;
64459;SDS011;50828;53.756;21.140;2023-11-21T16:30:22;5.80;;;2.90;;
64459;SDS011;50828;53.756;21.140;2023-11-21T16:35:30;4.80;;;2.60;;
64459;SDS011;50828;53.756;21.140;2023-11-21T16:40:37;5.20;;;2.50;;
64459;SDS011;50828;53.756;21.140;2023-11-21T16:45:46;7.70;;;2.70;;
64459;SDS011;50828;53.756;21.140;2023-11-21T16:50:55;5.40;;;3.00;;
64459;SDS011;50828;53.756;21.140;2023-11-21T16:56:04;5.00;;;2.70;;
64459;SDS011;50828;53.756;21.140;2023-11-21T17:01:12;5.50;;;2.90;;
64459;SDS011;50828;53.756;21.140;2023-11-21T17:06:21;8.10;;;3.30;;
64459;SDS011;50828;53.756;21.140;2023-11-21T17:11:29;6.70;;;3.30;;
64459;SDS011;50828;53.756;21.140;2023-11-21T17:16:36;5.80;;;2.90;;
64459;SDS011;50828;53.756;21.140;2023-11-21T17:21:46;7.30;;;2.90;;
64459;SDS011;50828;53.756;21.140;2023-11-21T17:26:53;50.70;;;13.70;;
64459;SDS011;50828;53.756;21.140;2023-11-21T17:32:00;113.60;;;25.20;;
64459;SDS011;50828;53.756;21.140;2023-11-21T17:37:08;133.00;;;28.90;;
64459;SDS011;50828;53.756;21.140;2023-11-21T17:42:16;131.00;;;25.50;;
64459;SDS011;50828;53.756;21.140;2023-11-21T17:47:23;84.80;;;15.50;;
64459;SDS011;50828;53.756;21.140;2023-11-21T17:52:31;66.60;;;11.70;;
64459;SDS011;50828;53.756;21.140;2023-11-21T17:57:40;55.70;;;11.30;;
64459;SDS011;50828;53.756;21.140;2023-11-21T18:02:48;78.10;;;15.70;;
64459;SDS011;50828;53.756;21.140;2023-11-21T18:07:55;236.10;;;52.90;;
64459;SDS011;50828;53.756;21.140;2023-11-21T18:13:03;163.70;;;36.40;;
64459;SDS011;50828;53.756;21.140;2023-11-21T18:18:10;63.30;;;15.80;;
64459;SDS011;50828;53.756;21.140;2023-11-21T18:23:18;31.00;;;9.10;;
64459;SDS011;50828;53.756;21.140;2023-11-21T18:28:25;18.30;;;6.60;;
64459;SDS011;50828;53.756;21.140;2023-11-21T18:33:33;17.50;;;5.80;;
64459;SDS011;50828;53.756;21.140;2023-11-21T18:38:40;14.20;;;5.30;;
64459;SDS011;50828;53.756;21.140;2023-11-21T18:43:48;11.80;;;4.00;;
64459;SDS011;50828;53.756;21.140;2023-11-21T18:48:58;7.40;;;3.60;;
64459;SDS011;50828;53.756;21.140;2023-11-21T18:54:06;9.00;;;4.00;;
64459;SDS011;50828;53.756;21.140;2023-11-21T18:59:13;9.10;;;4.50;;
64459;SDS011;50828;53.756;21.140;2023-11-21T19:04:20;11.70;;;4.40;;
64459;SDS011;50828;53.756;21.140;2023-11-21T19:09:28;10.00;;;4.10;;
64459;SDS011;50828;53.756;21.140;2023-11-21T19:14:37;23.00;;;7.30;;
64459;SDS011;50828;53.756;21.140;2023-11-21T19:19:47;23.70;;;7.70;;
64459;SDS011;50828;53.756;21.140;2023-11-21T19:24:55;22.40;;;6.10;;
64459;SDS011;50828;53.756;21.140;2023-11-21T19:30:03;15.80;;;4.50;;
64459;SDS011;50828;53.756;21.140;2023-11-21T19:35:14;15.50;;;5.00;;
64459;SDS011;50828;53.756;21.140;2023-11-21T19:40:22;17.20;;;5.70;;
64459;SDS011;50828;53.756;21.140;2023-11-21T19:45:30;17.00;;;5.50;;
64459;SDS011;50828;53.756;21.140;2023-11-21T19:50:38;24.10;;;6.70;;
64459;SDS011;50828;53.756;21.140;2023-11-21T19:55:45;77.70;;;21.00;;
64459;SDS011;50828;53.756;21.140;2023-11-21T20:00:53;59.70;;;16.40;;
64459;SDS011;50828;53.756;21.140;2023-11-21T20:06:01;32.30;;;9.20;;
64459;SDS011;50828;53.756;21.140;2023-11-21T20:11:09;44.50;;;13.60;;
64459;SDS011;50828;53.756;21.140;2023-11-21T20:16:17;30.10;;;10.20;;
64459;SDS011;50828;53.756;21.140;2023-11-21T20:21:25;29.70;;;10.10;;
64459;SDS011;50828;53.756;21.140;2023-11-21T20:26:32;29.60;;;10.20;;
64459;SDS011;50828;53.756;21.140;2023-11-21T20:31:41;24.90;;;8.80;;
64459;SDS011;50828;53.756;21.140;2023-11-21T20:36:48;17.90;;;6.40;;
64459;SDS011;50828;53.756;21.140;2023-11-21T20:41:56;10.80;;;4.30;;
64459;SDS011;50828;53.756;21.140;2023-11-21T20:47:04;12.90;;;6.80;;
64459;SDS011;50828;53.756;21.140;2023-11-21T20:52:15;12.00;;;4.90;;
64459;SDS011;50828;53.756;21.140;2023-11-21T20:57:22;19.30;;;7.80;;
64459;SDS011;50828;53.756;21.140;2023-11-21T21:02:30;72.60;;;20.00;;
64459;SDS011;50828;53.756;21.140;2023-11-21T21:07:38;82.80;;;20.60;;
64459;SDS011;50828;53.756;21.140;2023-11-21T21:12:46;73.10;;;17.80;;
64459;SDS011;50828;53.756;21.140;2023-11-21T21:17:54;109.50;;;26.50;;
64459;SDS011;50828;53.756;21.140;2023-11-21T21:23:03;116.10;;;31.80;;
64459;SDS011;50828;53.756;21.140;2023-11-21T21:28:11;93.70;;;25.50;;
64459;SDS011;50828;53.756;21.140;2023-11-21T21:33:18;58.40;;;16.80;;
64459;SDS011;50828;53.756;21.140;2023-11-21T21:38:25;26.60;;;8.70;;
64459;SDS011;50828;53.756;21.140;2023-11-21T21:43:34;20.00;;;7.90;;
64459;SDS011;50828;53.756;21.140;2023-11-21T21:48:41;22.30;;;7.00;;
64459;SDS011;50828;53.756;21.140;2023-11-21T21:53:49;19.80;;;6.60;;
64459;SDS011;50828;53.756;21.140;2023-11-21T21:58:56;12.50;;;6.40;;
64459;SDS011;50828;53.756;21.140;2023-11-21T22:04:04;12.80;;;6.70;;
64459;SDS011;50828;53.756;21.140;2023-11-21T22:09:12;25.30;;;9.90;;
64459;SDS011;50828;53.756;21.140;2023-11-21T22:14:20;24.40;;;7.20;;
64459;SDS011;50828;53.756;21.140;2023-11-21T22:19:27;15.10;;;7.20;;
64459;SDS011;50828;53.756;21.140;2023-11-21T22:24:34;9.50;;;4.60;;
64459;SDS011;50828;53.756;21.140;2023-11-21T22:29:43;15.10;;;5.30;;
64459;SDS011;50828;53.756;21.140;2023-11-21T22:34:51;47.30;;;13.70;;
64459;SDS011;50828;53.756;21.140;2023-11-21T22:39:58;47.70;;;13.60;;
64459;SDS011;50828;53.756;21.140;2023-11-21T22:45:09;176.90;;;33.80;;
64459;SDS011;50828;53.756;21.140;2023-11-21T22:50:17;165.10;;;31.00;;
64459;SDS011;50828;53.756;21.140;2023-11-21T22:55:24;178.30;;;30.60;;
64459;SDS011;50828;53.756;21.140;2023-11-21T23:00:32;129.20;;;25.20;;
64459;SDS011;50828;53.756;21.140;2023-11-21T23:05:40;147.00;;;27.30;;
64459;SDS011;50828;53.756;21.140;2023-11-21T23:10:47;125.60;;;27.20;;
64459;SDS011;50828;53.756;21.140;2023-11-21T23:15:55;170.80;;;37.90;;
64459;SDS011;50828;53.756;21.140;2023-11-21T23:21:02;142.00;;;32.50;;
64459;SDS011;50828;53.756;21.140;2023-11-21T23:26:15;118.00;;;30.90;;
64459;SDS011;50828;53.756;21.140;2023-11-21T23:31:23;95.20;;;28.20;;
64459;SDS011;50828;53.756;21.140;2023-11-21T23:36:30;159.40;;;45.20;;
64459;SDS011;50828;53.756;21.140;2023-11-21T23:41:37;139.00;;;42.10;;
64459;SDS011;50828;53.756;21.140;2023-11-21T23:46:45;112.40;;;33.50;;
64459;SDS011;50828;53.756;21.140;2023-11-21T23:51:52;84.10;;;27.60;;
64459;SDS011;50828;53.756;21.140;2023-11-21T23:56:59;96.20;;;32.50;;
